sensor_id;sensor_type;location;lat;lon;timestamp;pressure;altitude;pressure_sealevel;temperature;humidity
59274;BME280;45044;41.572;24.730;2023-01-27T00:00:48;90402.03;;;0.14;100.00
59274;BME280;45044;41.572;24.730;2023-01-27T00:03:15;90400.81;;;-0.05;100.00
59274;BME280;45044;41.572;24.730;2023-01-27T00:05:44;90391.53;;;0.06;100.00
59274;BME280;45044;41.572;24.730;2023-01-27T00:08:11;90386.94;;;-0.01;100.00
59274;BME280;45044;41.572;24.730;2023-01-27T00:10:41;90391.25;;;-0.05;100.00
59274;BME280;45044;41.572;24.730;2023-01-27T00:13:12;90400.19;;;-0.02;100.00
59274;BME280;45044;41.572;24.730;2023-01-27T00:15:54;90393.16;;;-0.02;100.00
59274;BME280;45044;41.572;24.730;2023-01-27T00:18:21;90394.97;;;0.10;100.00
59274;BME280;45044;41.572;24.730;2023-01-27T00:20:51;90398.47;;;0.18;100.00
59274;BME280;45044;41.572;24.730;2023-01-27T00:23:37;90403.22;;;0.16;100.00
59274;BME280;45044;41.572;24.730;2023-01-27T00:26:22;90397.97;;;0.13;100.00
59274;BME280;45044;41.572;24.730;2023-01-27T00:28:49;90401.63;;;0.11;100.00
59274;BME280;45044;41.572;24.730;2023-01-27T00:31:16;90398.94;;;0.08;100.00
59274;BME280;45044;41.572;24.730;2023-01-27T00:34:03;90385.22;;;0.20;100.00
59274;BME280;45044;41.572;24.730;2023-01-27T00:36:40;90372.78;;;0.26;100.00
59274;BME280;45044;41.572;24.730;2023-01-27T00:39:10;90360.78;;;0.17;100.00
59274;BME280;45044;41.572;24.730;2023-01-27T00:41:37;90353.63;;;0.27;100.00
59274;BME280;45044;41.572;24.730;2023-01-27T00:44:04;90339.50;;;0.24;100.00
59274;BME280;45044;41.572;24.730;2023-01-27T00:46:32;90342.53;;;0.26;100.00
59274;BME280;45044;41.572;24.730;2023-01-27T00:48:59;90343.38;;;0.30;100.00
59274;BME280;45044;41.572;24.730;2023-01-27T00:51:26;90349.38;;;0.34;100.00
59274;BME280;45044;41.572;24.730;2023-01-27T00:53:52;90350.94;;;0.23;100.00
59274;BME280;45044;41.572;24.730;2023-01-27T00:56:20;90346.38;;;0.32;100.00
59274;BME280;45044;41.572;24.730;2023-01-27T00:58:47;90340.53;;;0.35;100.00
59274;BME280;45044;41.572;24.730;2023-01-27T01:01:15;90362.06;;;0.40;100.00
59274;BME280;45044;41.572;24.730;2023-01-27T01:03:43;90344.69;;;0.24;100.00
59274;BME280;45044;41.572;24.730;2023-01-27T01:06:13;90365.28;;;0.37;100.00
59274;BME280;45044;41.572;24.730;2023-01-27T01:08:41;90354.47;;;0.31;100.00
59274;BME280;45044;41.572;24.730;2023-01-27T01:11:11;90365.72;;;0.39;100.00
59274;BME280;45044;41.572;24.730;2023-01-27T01:13:40;90359.94;;;0.13;100.00
59274;BME280;45044;41.572;24.730;2023-01-27T01:16:10;90358.88;;;0.30;100.00
59274;BME280;45044;41.572;24.730;2023-01-27T01:18:37;90353.34;;;0.16;100.00
59274;BME280;45044;41.572;24.730;2023-01-27T01:21:07;90343.03;;;0.32;100.00
59274;BME280;45044;41.572;24.730;2023-01-27T01:23:37;90329.00;;;0.33;100.00
59274;BME280;45044;41.572;24.730;2023-01-27T01:26:05;90324.50;;;0.30;100.00
59274;BME280;45044;41.572;24.730;2023-01-27T01:28:32;90326.00;;;0.15;100.00
59274;BME280;45044;41.572;24.730;2023-01-27T01:31:07;90329.81;;;-0.11;100.00
59274;BME280;45044;41.572;24.730;2023-01-27T01:33:35;90340.47;;;-0.13;100.00
59274;BME280;45044;41.572;24.730;2023-01-27T01:36:07;90337.78;;;-0.17;100.00
59274;BME280;45044;41.572;24.730;2023-01-27T01:38:34;90338.81;;;-0.05;100.00
59274;BME280;45044;41.572;24.730;2023-01-27T01:41:04;90323.66;;;0.09;100.00
59274;BME280;45044;41.572;24.730;2023-01-27T01:43:32;90314.16;;;0.14;100.00
59274;BME280;45044;41.572;24.730;2023-01-27T01:46:00;90314.75;;;0.23;100.00
59274;BME280;45044;41.572;24.730;2023-01-27T01:51:31;90311.00;;;0.20;100.00
59274;BME280;45044;41.572;24.730;2023-01-27T01:54:12;90301.56;;;0.28;100.00
59274;BME280;45044;41.572;24.730;2023-01-27T01:57:17;90292.34;;;0.27;100.00
59274;BME280;45044;41.572;24.730;2023-01-27T02:00:01;90288.41;;;0.17;100.00
59274;BME280;45044;41.572;24.730;2023-01-27T02:02:28;90286.16;;;0.16;100.00
59274;BME280;45044;41.572;24.730;2023-01-27T02:07:56;90280.97;;;0.16;100.00
59274;BME280;45044;41.572;24.730;2023-01-27T02:10:25;90275.63;;;0.25;100.00
59274;BME280;45044;41.572;24.730;2023-01-27T02:12:52;90286.41;;;0.10;100.00
59274;BME280;45044;41.572;24.730;2023-01-27T02:15:19;90274.13;;;0.07;100.00
59274;BME280;45044;41.572;24.730;2023-01-27T02:17:51;90278.13;;;0.21;100.00
59274;BME280;45044;41.572;24.730;2023-01-27T02:20:28;90267.38;;;0.03;100.00
59274;BME280;45044;41.572;24.730;2023-01-27T02:26:04;90261.31;;;0.27;100.00
59274;BME280;45044;41.572;24.730;2023-01-27T02:28:32;90265.13;;;0.33;100.00
59274;BME280;45044;41.572;24.730;2023-01-27T02:30:59;90259.44;;;0.28;100.00
59274;BME280;45044;41.572;24.730;2023-01-27T02:33:26;90271.72;;;0.15;100.00
59274;BME280;45044;41.572;24.730;2023-01-27T02:36:13;90278.47;;;0.19;100.00
59274;BME280;45044;41.572;24.730;2023-01-27T02:38:47;90276.72;;;0.23;100.00
59274;BME280;45044;41.572;24.730;2023-01-27T02:41:34;90277.72;;;0.19;100.00
59274;BME280;45044;41.572;24.730;2023-01-27T02:44:05;90269.88;;;0.31;100.00
59274;BME280;45044;41.572;24.730;2023-01-27T02:46:31;90254.38;;;0.15;100.00
59274;BME280;45044;41.572;24.730;2023-01-27T02:48:58;90259.88;;;0.14;100.00
59274;BME280;45044;41.572;24.730;2023-01-27T02:51:27;90260.88;;;0.09;100.00
59274;BME280;45044;41.572;24.730;2023-01-27T02:53:54;90256.28;;;0.02;100.00
59274;BME280;45044;41.572;24.730;2023-01-27T02:56:21;90256.78;;;-0.08;100.00
59274;BME280;45044;41.572;24.730;2023-01-27T02:58:50;90277.28;;;-0.16;100.00
59274;BME280;45044;41.572;24.730;2023-01-27T03:01:17;90273.88;;;-0.04;100.00
59274;BME280;45044;41.572;24.730;2023-01-27T03:03:43;90265.38;;;0.12;100.00
59274;BME280;45044;41.572;24.730;2023-01-27T03:06:13;90254.97;;;0.08;100.00
59274;BME280;45044;41.572;24.730;2023-01-27T03:08:40;90246.13;;;0.09;100.00
59274;BME280;45044;41.572;24.730;2023-01-27T03:11:08;90262.38;;;0.26;100.00
59274;BME280;45044;41.572;24.730;2023-01-27T03:13:35;90249.19;;;0.31;100.00
59274;BME280;45044;41.572;24.730;2023-01-27T03:16:04;90256.28;;;0.34;100.00
59274;BME280;45044;41.572;24.730;2023-01-27T03:18:50;90257.53;;;0.41;100.00
59274;BME280;45044;41.572;24.730;2023-01-27T03:21:21;90283.81;;;0.43;100.00
59274;BME280;45044;41.572;24.730;2023-01-27T03:23:48;90279.81;;;0.45;100.00
59274;BME280;45044;41.572;24.730;2023-01-27T03:26:15;90255.03;;;0.28;100.00
59274;BME280;45044;41.572;24.730;2023-01-27T03:28:42;90299.84;;;0.32;100.00
59274;BME280;45044;41.572;24.730;2023-01-27T03:31:10;90305.09;;;0.36;100.00
59274;BME280;45044;41.572;24.730;2023-01-27T03:33:46;90294.50;;;0.41;100.00
59274;BME280;45044;41.572;24.730;2023-01-27T03:36:14;90285.28;;;0.44;100.00
59274;BME280;45044;41.572;24.730;2023-01-27T03:38:59;90291.16;;;0.41;100.00
59274;BME280;45044;41.572;24.730;2023-01-27T03:41:44;90285.81;;;0.17;100.00
59274;BME280;45044;41.572;24.730;2023-01-27T03:44:29;90278.06;;;0.01;100.00
59274;BME280;45044;41.572;24.730;2023-01-27T03:47:15;90275.56;;;0.21;100.00
59274;BME280;45044;41.572;24.730;2023-01-27T03:49:41;90268.56;;;0.05;100.00
59274;BME280;45044;41.572;24.730;2023-01-27T03:52:09;90266.16;;;0.13;100.00
59274;BME280;45044;41.572;24.730;2023-01-27T03:54:35;90264.88;;;0.06;100.00
59274;BME280;45044;41.572;24.730;2023-01-27T03:57:02;90261.72;;;0.13;100.00
59274;BME280;45044;41.572;24.730;2023-01-27T03:59:32;90251.88;;;0.03;100.00
59274;BME280;45044;41.572;24.730;2023-01-27T04:02:00;90275.81;;;0.16;100.00
59274;BME280;45044;41.572;24.730;2023-01-27T04:04:45;90272.28;;;0.24;100.00
59274;BME280;45044;41.572;24.730;2023-01-27T04:07:33;90261.44;;;0.18;100.00
59274;BME280;45044;41.572;24.730;2023-01-27T04:10:01;90245.47;;;0.29;100.00
59274;BME280;45044;41.572;24.730;2023-01-27T04:12:27;90251.94;;;0.39;100.00
59274;BME280;45044;41.572;24.730;2023-01-27T04:14:54;90237.09;;;0.35;100.00
59274;BME280;45044;41.572;24.730;2023-01-27T04:17:21;90240.25;;;0.45;100.00
59274;BME280;45044;41.572;24.730;2023-01-27T04:19:47;90240.25;;;0.45;100.00
59274;BME280;45044;41.572;24.730;2023-01-27T04:22:14;90231.56;;;0.53;100.00
59274;BME280;45044;41.572;24.730;2023-01-27T04:24:41;90225.59;;;0.49;100.00
59274;BME280;45044;41.572;24.730;2023-01-27T04:27:11;90226.38;;;0.53;100.00
59274;BME280;45044;41.572;24.730;2023-01-27T04:29:40;90232.94;;;0.47;100.00
59274;BME280;45044;41.572;24.730;2023-01-27T04:32:10;90249.09;;;0.44;100.00
59274;BME280;45044;41.572;24.730;2023-01-27T04:34:38;90255.69;;;0.41;100.00
59274;BME280;45044;41.572;24.730;2023-01-27T04:37:07;90261.63;;;0.42;100.00
59274;BME280;45044;41.572;24.730;2023-01-27T04:39:34;90252.63;;;0.35;100.00
59274;BME280;45044;41.572;24.730;2023-01-27T04:42:01;90241.25;;;0.40;100.00
59274;BME280;45044;41.572;24.730;2023-01-27T04:44:28;90244.94;;;0.23;100.00
59274;BME280;45044;41.572;24.730;2023-01-27T04:46:55;90252.81;;;0.10;100.00
59274;BME280;45044;41.572;24.730;2023-01-27T04:49:21;90265.13;;;0.01;100.00
59274;BME280;45044;41.572;24.730;2023-01-27T04:51:48;90260.28;;;0.16;100.00
59274;BME280;45044;41.572;24.730;2023-01-27T04:54:15;90255.28;;;0.23;100.00
59274;BME280;45044;41.572;24.730;2023-01-27T04:57:01;90259.13;;;0.29;100.00
59274;BME280;45044;41.572;24.730;2023-01-27T04:59:29;90261.56;;;0.38;100.00
59274;BME280;45044;41.572;24.730;2023-01-27T05:01:56;90264.78;;;0.19;100.00
59274;BME280;45044;41.572;24.730;2023-01-27T05:04:23;90269.97;;;0.35;100.00
59274;BME280;45044;41.572;24.730;2023-01-27T05:06:52;90259.34;;;0.40;100.00
59274;BME280;45044;41.572;24.730;2023-01-27T05:09:18;90256.78;;;0.24;100.00
59274;BME280;45044;41.572;24.730;2023-01-27T05:11:45;90258.47;;;0.32;100.00
59274;BME280;45044;41.572;24.730;2023-01-27T05:14:12;90248.94;;;0.37;100.00
59274;BME280;45044;41.572;24.730;2023-01-27T05:16:40;90252.53;;;0.32;100.00
59274;BME280;45044;41.572;24.730;2023-01-27T05:19:07;90251.84;;;0.35;100.00
59274;BME280;45044;41.572;24.730;2023-01-27T05:21:34;90267.44;;;0.39;100.00
59274;BME280;45044;41.572;24.730;2023-01-27T05:24:01;90255.78;;;0.45;100.00
59274;BME280;45044;41.572;24.730;2023-01-27T05:26:28;90260.34;;;0.52;100.00
59274;BME280;45044;41.572;24.730;2023-01-27T05:28:56;90248.94;;;0.53;100.00
59274;BME280;45044;41.572;24.730;2023-01-27T05:31:28;90251.53;;;0.53;100.00
59274;BME280;45044;41.572;24.730;2023-01-27T05:33:58;90254.84;;;0.53;100.00
59274;BME280;45044;41.572;24.730;2023-01-27T05:36:26;90241.97;;;0.57;100.00
59274;BME280;45044;41.572;24.730;2023-01-27T05:38:53;90248.34;;;0.59;100.00
59274;BME280;45044;41.572;24.730;2023-01-27T05:41:21;90247.22;;;0.61;100.00
59274;BME280;45044;41.572;24.730;2023-01-27T05:43:53;90233.63;;;0.64;100.00
59274;BME280;45044;41.572;24.730;2023-01-27T05:46:22;90230.44;;;0.70;100.00
59274;BME280;45044;41.572;24.730;2023-01-27T05:48:51;90231.59;;;0.73;100.00
59274;BME280;45044;41.572;24.730;2023-01-27T05:51:20;90237.59;;;0.77;100.00
59274;BME280;45044;41.572;24.730;2023-01-27T05:53:47;90236.50;;;0.78;100.00
59274;BME280;45044;41.572;24.730;2023-01-27T05:56:17;90241.03;;;0.81;100.00
59274;BME280;45044;41.572;24.730;2023-01-27T05:58:44;90234.94;;;0.74;100.00
59274;BME280;45044;41.572;24.730;2023-01-27T06:01:13;90229.69;;;0.70;100.00
59274;BME280;45044;41.572;24.730;2023-01-27T06:03:41;90237.13;;;0.71;100.00
59274;BME280;45044;41.572;24.730;2023-01-27T06:06:13;90240.69;;;0.47;100.00
59274;BME280;45044;41.572;24.730;2023-01-27T06:08:41;90235.19;;;0.32;100.00
59274;BME280;45044;41.572;24.730;2023-01-27T06:11:08;90233.19;;;0.26;100.00
59274;BME280;45044;41.572;24.730;2023-01-27T06:13:35;90240.84;;;0.22;100.00
59274;BME280;45044;41.572;24.730;2023-01-27T06:16:09;90248.19;;;0.36;100.00
59274;BME280;45044;41.572;24.730;2023-01-27T06:18:36;90241.75;;;0.46;100.00
59274;BME280;45044;41.572;24.730;2023-01-27T06:21:05;90248.69;;;0.58;100.00
59274;BME280;45044;41.572;24.730;2023-01-27T06:23:33;90249.22;;;0.67;100.00
59274;BME280;45044;41.572;24.730;2023-01-27T06:26:05;90252.72;;;0.75;100.00
59274;BME280;45044;41.572;24.730;2023-01-27T06:28:32;90247.41;;;0.88;100.00
59274;BME280;45044;41.572;24.730;2023-01-27T06:33:31;90250.47;;;0.74;100.00
59274;BME280;45044;41.572;24.730;2023-01-27T06:36:07;90241.50;;;0.35;100.00
59274;BME280;45044;41.572;24.730;2023-01-27T06:38:35;90240.31;;;0.65;100.00
59274;BME280;45044;41.572;24.730;2023-01-27T06:41:02;90243.19;;;0.79;100.00
59274;BME280;45044;41.572;24.730;2023-01-27T06:43:29;90240.91;;;0.94;100.00
59274;BME280;45044;41.572;24.730;2023-01-27T06:45:57;90236.63;;;1.02;100.00
59274;BME280;45044;41.572;24.730;2023-01-27T06:48:24;90241.19;;;1.09;100.00
59274;BME280;45044;41.572;24.730;2023-01-27T06:50:52;90246.09;;;1.14;100.00
59274;BME280;45044;41.572;24.730;2023-01-27T06:53:19;90253.50;;;1.15;100.00
59274;BME280;45044;41.572;24.730;2023-01-27T06:55:46;90253.66;;;1.23;100.00
59274;BME280;45044;41.572;24.730;2023-01-27T06:58:14;90246.78;;;1.11;100.00
59274;BME280;45044;41.572;24.730;2023-01-27T07:00:41;90250.69;;;0.85;100.00
59274;BME280;45044;41.572;24.730;2023-01-27T07:03:09;90256.75;;;0.56;100.00
59274;BME280;45044;41.572;24.730;2023-01-27T07:05:37;90250.16;;;0.95;100.00
59274;BME280;45044;41.572;24.730;2023-01-27T07:08:05;90247.16;;;1.13;100.00
59274;BME280;45044;41.572;24.730;2023-01-27T07:10:32;90241.75;;;1.18;100.00
59274;BME280;45044;41.572;24.730;2023-01-27T07:13:10;90246.72;;;1.27;100.00
59274;BME280;45044;41.572;24.730;2023-01-27T07:15:37;90249.75;;;1.13;100.00
59274;BME280;45044;41.572;24.730;2023-01-27T07:18:04;90257.88;;;1.11;100.00
59274;BME280;45044;41.572;24.730;2023-01-27T07:20:32;90254.91;;;1.29;100.00
59274;BME280;45044;41.572;24.730;2023-01-27T07:23:01;90251.88;;;1.47;100.00
59274;BME280;45044;41.572;24.730;2023-01-27T07:25:31;90250.63;;;1.60;100.00
59274;BME280;45044;41.572;24.730;2023-01-27T07:27:59;90254.19;;;1.72;100.00
59274;BME280;45044;41.572;24.730;2023-01-27T07:30:27;90242.38;;;1.74;100.00
59274;BME280;45044;41.572;24.730;2023-01-27T07:32:54;90244.28;;;1.77;100.00
59274;BME280;45044;41.572;24.730;2023-01-27T07:35:21;90236.91;;;1.79;100.00
59274;BME280;45044;41.572;24.730;2023-01-27T07:37:48;90230.63;;;1.37;100.00
59274;BME280;45044;41.572;24.730;2023-01-27T07:40:15;90234.91;;;1.29;100.00
59274;BME280;45044;41.572;24.730;2023-01-27T07:42:43;90225.06;;;1.59;100.00
59274;BME280;45044;41.572;24.730;2023-01-27T07:45:10;90229.97;;;1.64;100.00
59274;BME280;45044;41.572;24.730;2023-01-27T07:47:37;90231.13;;;1.66;100.00
59274;BME280;45044;41.572;24.730;2023-01-27T07:50:05;90216.25;;;1.20;100.00
59274;BME280;45044;41.572;24.730;2023-01-27T07:52:32;90226.53;;;1.16;100.00
59274;BME280;45044;41.572;24.730;2023-01-27T07:54:59;90230.28;;;1.39;100.00
59274;BME280;45044;41.572;24.730;2023-01-27T07:57:25;90229.06;;;1.52;100.00
59274;BME280;45044;41.572;24.730;2023-01-27T07:59:52;90227.38;;;1.64;100.00
59274;BME280;45044;41.572;24.730;2023-01-27T08:02:22;90221.13;;;1.65;100.00
59274;BME280;45044;41.572;24.730;2023-01-27T08:04:49;90231.31;;;1.77;100.00
59274;BME280;45044;41.572;24.730;2023-01-27T08:07:19;90228.84;;;1.85;100.00
59274;BME280;45044;41.572;24.730;2023-01-27T08:09:46;90217.78;;;1.88;100.00
59274;BME280;45044;41.572;24.730;2023-01-27T08:12:13;90216.00;;;1.92;100.00
59274;BME280;45044;41.572;24.730;2023-01-27T08:14:40;90228.97;;;1.92;100.00
59274;BME280;45044;41.572;24.730;2023-01-27T08:17:07;90230.34;;;1.86;100.00
59274;BME280;45044;41.572;24.730;2023-01-27T08:19:34;90220.19;;;1.77;100.00
59274;BME280;45044;41.572;24.730;2023-01-27T08:22:00;90226.38;;;1.92;100.00
59274;BME280;45044;41.572;24.730;2023-01-27T08:24:27;90222.28;;;1.91;100.00
59274;BME280;45044;41.572;24.730;2023-01-27T08:26:54;90225.16;;;1.86;100.00
59274;BME280;45044;41.572;24.730;2023-01-27T08:29:21;90224.84;;;1.67;100.00
59274;BME280;45044;41.572;24.730;2023-01-27T08:31:48;90223.25;;;1.59;100.00
59274;BME280;45044;41.572;24.730;2023-01-27T08:34:15;90216.91;;;1.37;100.00
59274;BME280;45044;41.572;24.730;2023-01-27T08:36:42;90218.28;;;1.50;100.00
59274;BME280;45044;41.572;24.730;2023-01-27T08:39:09;90218.22;;;1.47;100.00
59274;BME280;45044;41.572;24.730;2023-01-27T08:41:37;90222.66;;;1.26;100.00
59274;BME280;45044;41.572;24.730;2023-01-27T08:44:04;90225.34;;;1.53;100.00
59274;BME280;45044;41.572;24.730;2023-01-27T08:46:32;90209.66;;;1.66;100.00
59274;BME280;45044;41.572;24.730;2023-01-27T08:48:59;90209.31;;;1.67;100.00
59274;BME280;45044;41.572;24.730;2023-01-27T08:51:26;90213.06;;;1.70;100.00
59274;BME280;45044;41.572;24.730;2023-01-27T08:53:53;90213.06;;;1.70;100.00
59274;BME280;45044;41.572;24.730;2023-01-27T08:56:20;90212.78;;;1.75;100.00
59274;BME280;45044;41.572;24.730;2023-01-27T08:58:47;90218.66;;;1.96;100.00
59274;BME280;45044;41.572;24.730;2023-01-27T09:01:14;90205.63;;;1.92;100.00
59274;BME280;45044;41.572;24.730;2023-01-27T09:03:42;90208.94;;;1.89;100.00
59274;BME280;45044;41.572;24.730;2023-01-27T09:06:10;90207.06;;;1.89;100.00
59274;BME280;45044;41.572;24.730;2023-01-27T09:08:38;90205.34;;;1.97;100.00
59274;BME280;45044;41.572;24.730;2023-01-27T09:11:13;90202.56;;;2.10;100.00
59274;BME280;45044;41.572;24.730;2023-01-27T09:13:41;90205.75;;;1.99;100.00
59274;BME280;45044;41.572;24.730;2023-01-27T09:16:09;90211.66;;;1.76;100.00
59274;BME280;45044;41.572;24.730;2023-01-27T09:18:35;90212.47;;;1.57;100.00
59274;BME280;45044;41.572;24.730;2023-01-27T09:21:06;90208.69;;;1.74;100.00
59274;BME280;45044;41.572;24.730;2023-01-27T09:23:33;90217.78;;;1.88;100.00
59274;BME280;45044;41.572;24.730;2023-01-27T09:26:00;90208.88;;;1.85;100.00
59274;BME280;45044;41.572;24.730;2023-01-27T09:28:27;90201.31;;;2.00;100.00
59274;BME280;45044;41.572;24.730;2023-01-27T09:30:57;90205.41;;;2.01;100.00
59274;BME280;45044;41.572;24.730;2023-01-27T09:33:25;90204.53;;;1.93;100.00
59274;BME280;45044;41.572;24.730;2023-01-27T09:35:58;90206.09;;;2.21;100.00
59274;BME280;45044;41.572;24.730;2023-01-27T09:38:29;90197.78;;;2.12;100.00
59274;BME280;45044;41.572;24.730;2023-01-27T09:49:39;90193.63;;;2.58;100.00
59274;BME280;45044;41.572;24.730;2023-01-27T09:54:51;90194.34;;;3.16;100.00
59274;BME280;45044;41.572;24.730;2023-01-27T10:07:54;90174.06;;;4.73;100.00
59274;BME280;45044;41.572;24.730;2023-01-27T10:24:50;90164.38;;;3.64;100.00
59274;BME280;45044;41.572;24.730;2023-01-27T10:26:50;90171.56;;;3.82;100.00
59274;BME280;45044;41.572;24.730;2023-01-27T10:29:37;90159.41;;;3.93;100.00
59274;BME280;45044;41.572;24.730;2023-01-27T10:32:11;90171.31;;;3.94;100.00
59274;BME280;45044;41.572;24.730;2023-01-27T10:45:41;90144.63;;;4.61;100.00
59274;BME280;45044;41.572;24.730;2023-01-27T10:48:32;90145.75;;;4.04;100.00
59274;BME280;45044;41.572;24.730;2023-01-27T10:51:28;90136.50;;;4.06;100.00
59274;BME280;45044;41.572;24.730;2023-01-27T10:54:16;90135.94;;;3.82;100.00
59274;BME280;45044;41.572;24.730;2023-01-27T10:56:53;90139.31;;;3.87;100.00
59274;BME280;45044;41.572;24.730;2023-01-27T10:59:30;90141.75;;;4.14;100.00
59274;BME280;45044;41.572;24.730;2023-01-27T11:04:57;90131.97;;;4.56;100.00
59274;BME280;45044;41.572;24.730;2023-01-27T11:07:25;90110.41;;;4.59;100.00
59274;BME280;45044;41.572;24.730;2023-01-27T11:10:03;90120.13;;;4.70;100.00
59274;BME280;45044;41.572;24.730;2023-01-27T11:12:36;90126.03;;;4.59;100.00
59274;BME280;45044;41.572;24.730;2023-01-27T11:15:29;90116.28;;;4.41;100.00
59274;BME280;45044;41.572;24.730;2023-01-27T11:18:04;90113.59;;;4.30;100.00
59274;BME280;45044;41.572;24.730;2023-01-27T11:20:39;90100.47;;;3.59;100.00
59274;BME280;45044;41.572;24.730;2023-01-27T11:28:27;90108.97;;;4.05;100.00
59274;BME280;45044;41.572;24.730;2023-01-27T11:33:41;90099.00;;;4.89;100.00
59274;BME280;45044;41.572;24.730;2023-01-27T11:36:11;90103.53;;;5.14;100.00
59274;BME280;45044;41.572;24.730;2023-01-27T11:38:37;90099.06;;;5.15;100.00
59274;BME280;45044;41.572;24.730;2023-01-27T11:41:04;90095.34;;;5.05;100.00
59274;BME280;45044;41.572;24.730;2023-01-27T11:43:31;90095.25;;;4.83;100.00
59274;BME280;45044;41.572;24.730;2023-01-27T11:46:01;90100.50;;;4.90;100.00
59274;BME280;45044;41.572;24.730;2023-01-27T11:48:37;90091.53;;;4.84;100.00
59274;BME280;45044;41.572;24.730;2023-01-27T11:51:38;90102.69;;;4.81;100.00
59274;BME280;45044;41.572;24.730;2023-01-27T11:54:16;90101.16;;;4.76;100.00
59274;BME280;45044;41.572;24.730;2023-01-27T11:56:46;90096.72;;;4.77;100.00
59274;BME280;45044;41.572;24.730;2023-01-27T12:02:01;90087.38;;;4.61;100.00
59274;BME280;45044;41.572;24.730;2023-01-27T12:09:37;90090.50;;;4.18;100.00
59274;BME280;45044;41.572;24.730;2023-01-27T12:12:18;90090.16;;;4.27;100.00
59274;BME280;45044;41.572;24.730;2023-01-27T12:14:51;90084.66;;;4.39;100.00
59274;BME280;45044;41.572;24.730;2023-01-27T12:17:40;90081.59;;;4.23;100.00
59274;BME280;45044;41.572;24.730;2023-01-27T12:22:52;90068.09;;;4.02;100.00
59274;BME280;45044;41.572;24.730;2023-01-27T12:25:25;90064.09;;;3.59;100.00
59274;BME280;45044;41.572;24.730;2023-01-27T12:28:02;90070.81;;;3.64;100.00
59274;BME280;45044;41.572;24.730;2023-01-27T12:30:32;90073.44;;;3.68;100.00
59274;BME280;45044;41.572;24.730;2023-01-27T12:33:10;90064.88;;;3.67;100.00
59274;BME280;45044;41.572;24.730;2023-01-27T12:35:39;90061.22;;;3.72;100.00
59274;BME280;45044;41.572;24.730;2023-01-27T12:38:17;90061.25;;;3.76;100.00
59274;BME280;45044;41.572;24.730;2023-01-27T12:40:56;90067.47;;;3.67;100.00
59274;BME280;45044;41.572;24.730;2023-01-27T12:43:23;90064.47;;;3.58;100.00
59274;BME280;45044;41.572;24.730;2023-01-27T12:46:27;90061.88;;;3.58;100.00
59274;BME280;45044;41.572;24.730;2023-01-27T12:49:11;90072.25;;;3.58;100.00
59274;BME280;45044;41.572;24.730;2023-01-27T12:51:50;90070.25;;;3.40;100.00
59274;BME280;45044;41.572;24.730;2023-01-27T12:54:26;90082.53;;;3.43;100.00
59274;BME280;45044;41.572;24.730;2023-01-27T12:57:00;90081.81;;;3.46;100.00
59274;BME280;45044;41.572;24.730;2023-01-27T12:59:27;90072.91;;;3.47;100.00
59274;BME280;45044;41.572;24.730;2023-01-27T13:02:15;90074.91;;;3.20;100.00
59274;BME280;45044;41.572;24.730;2023-01-27T13:04:51;90081.50;;;3.14;100.00
59274;BME280;45044;41.572;24.730;2023-01-27T13:07:27;90078.88;;;3.10;100.00
59274;BME280;45044;41.572;24.730;2023-01-27T13:09:58;90081.56;;;3.17;100.00
59274;BME280;45044;41.572;24.730;2023-01-27T13:15:15;90080.50;;;3.26;100.00
59274;BME280;45044;41.572;24.730;2023-01-27T13:17:51;90082.38;;;3.25;100.00
59274;BME280;45044;41.572;24.730;2023-01-27T13:20:28;90073.56;;;3.37;100.00
59274;BME280;45044;41.572;24.730;2023-01-27T13:23:25;90079.59;;;3.49;100.00
59274;BME280;45044;41.572;24.730;2023-01-27T13:33:58;90066.78;;;3.25;100.00
59274;BME280;45044;41.572;24.730;2023-01-27T13:36:43;90066.22;;;3.05;100.00
59274;BME280;45044;41.572;24.730;2023-01-27T13:39:23;90069.06;;;3.30;100.00
59274;BME280;45044;41.572;24.730;2023-01-27T13:44:44;90056.06;;;3.30;100.00
59274;BME280;45044;41.572;24.730;2023-01-27T13:47:39;90064.19;;;3.25;100.00
59274;BME280;45044;41.572;24.730;2023-01-27T13:52:50;90054.53;;;3.26;100.00
59274;BME280;45044;41.572;24.730;2023-01-27T13:55:41;90059.97;;;3.13;100.00
59274;BME280;45044;41.572;24.730;2023-01-27T13:58:46;90069.88;;;3.00;100.00
59274;BME280;45044;41.572;24.730;2023-01-27T14:01:51;90071.63;;;2.89;100.00
59274;BME280;45044;41.572;24.730;2023-01-27T14:04:44;90072.59;;;2.77;100.00
59274;BME280;45044;41.572;24.730;2023-01-27T14:07:46;90069.25;;;2.72;100.00
59274;BME280;45044;41.572;24.730;2023-01-27T14:13:56;90082.44;;;2.60;100.00
59274;BME280;45044;41.572;24.730;2023-01-27T14:19:13;90074.97;;;2.55;100.00
59274;BME280;45044;41.572;24.730;2023-01-27T14:21:59;90086.59;;;2.34;100.00
59274;BME280;45044;41.572;24.730;2023-01-27T14:24:58;90092.06;;;2.29;100.00
59274;BME280;45044;41.572;24.730;2023-01-27T14:27:43;90089.38;;;2.21;100.00
59274;BME280;45044;41.572;24.730;2023-01-27T14:38:31;90093.72;;;2.13;100.00
59274;BME280;45044;41.572;24.730;2023-01-27T14:41:17;90095.97;;;2.15;100.00
59274;BME280;45044;41.572;24.730;2023-01-27T14:43:50;90095.25;;;2.18;100.00
59274;BME280;45044;41.572;24.730;2023-01-27T14:46:56;90097.59;;;1.96;100.00
59274;BME280;45044;41.572;24.730;2023-01-27T14:52:20;90103.84;;;1.95;100.00
59274;BME280;45044;41.572;24.730;2023-01-27T15:03:11;90106.09;;;1.97;100.00
59274;BME280;45044;41.572;24.730;2023-01-27T15:06:19;90104.44;;;1.85;100.00
59274;BME280;45044;41.572;24.730;2023-01-27T15:09:09;90113.22;;;2.03;100.00
59274;BME280;45044;41.572;24.730;2023-01-27T15:14:52;90116.28;;;1.86;100.00
59274;BME280;45044;41.572;24.730;2023-01-27T15:22:53;90129.22;;;1.59;100.00
59274;BME280;45044;41.572;24.730;2023-01-27T15:25:29;90125.19;;;1.85;100.00